Time;durP1;ratioP1;P1;durP2;ratioP2;P2;SDS_P1;SDS_P2;PMS_P1;PMS_P2;Temp;Humidity;BMP_temperature;BMP_pressure;BME280_temperature;BME280_humidity;BME280_pressure;Samples;Min_cycle;Max_cycle;Signal;HPM_P1;HPM_P2
2022/06/20 00:00:28;;;;;;;6.35;2.20;;;25.00;72.50;;;;;;6287216;28;20390;-82
2022/06/20 00:03:38;;;;;;;15.55;2.75;;;25.00;72.60;;;;;;6308401;28;20053;-82
2022/06/20 00:06:39;;;;;;;9.88;2.78;;;25.00;72.40;;;;;;6305471;28;20055;-83
2022/06/20 00:09:43;;;;;;;10.80;2.85;;;25.10;72.40;;;;;;6277455;28;20055;-82
2022/06/20 00:12:45;;;;;;;13.52;3.53;;;25.10;72.50;;;;;;6296961;28;20044;-83
2022/06/20 00:15:49;;;;;;;8.05;2.38;;;25.10;72.90;;;;;;6305626;28;20053;-82
2022/06/20 00:18:51;;;;;;;7.28;2.97;;;25.00;73.30;;;;;;6304899;28;20259;-83
2022/06/20 00:21:53;;;;;;;8.77;2.50;;;24.90;74.00;;;;;;6304724;28;20051;-82
2022/06/20 00:24:56;;;;;;;14.07;3.35;;;24.80;74.50;;;;;;6304623;28;20410;-83
2022/06/20 00:27:58;;;;;;;9.95;3.03;;;24.70;74.90;;;;;;6305379;28;20053;-83
2022/06/20 00:31:00;;;;;;;11.43;2.58;;;24.70;74.90;;;;;;6320777;28;20072;-83
2022/06/20 00:34:02;;;;;;;11.07;4.05;;;24.60;75.30;;;;;;6304086;28;20544;-82
2022/06/20 00:37:06;;;;;;;11.57;3.38;;;24.60;75.90;;;;;;6303984;28;20462;-82
2022/06/20 00:40:20;;;;;;;5.15;3.03;;;24.40;76.30;;;;;;6304436;28;20051;-82
2022/06/20 00:43:25;;;;;;;14.25;3.13;;;24.20;77.10;;;;;;6304893;28;20645;-82
2022/06/20 00:46:32;;;;;;;6.07;2.67;;;24.20;77.50;;;;;;6303760;28;20048;-82
2022/06/20 00:49:38;;;;;;;10.65;3.22;;;24.10;77.80;;;;;;6302872;28;20060;-82
2022/06/20 00:52:44;;;;;;;12.20;3.40;;;24.00;78.10;;;;;;6303021;28;20051;-82
2022/06/20 00:55:52;;;;;;;10.95;3.65;;;23.90;78.60;;;;;;6304819;28;20470;-82
2022/06/20 00:58:55;;;;;;;;;;;23.90;78.90;;;;;;6309203;28;20151;-82
2022/06/20 01:01:59;;;;;;;9.70;3.38;;;23.80;79.10;;;;;;6308738;28;19920;-82
2022/06/20 01:05:03;;;;;;;10.07;3.25;;;23.80;79.70;;;;;;6309014;28;20571;-82
2022/06/20 01:08:12;;;;;;;11.10;3.38;;;23.70;80.20;;;;;;6306996;28;20037;-82
2022/06/20 01:11:18;;;;;;;7.30;3.10;;;23.60;80.90;;;;;;6308080;28;20040;-82
2022/06/20 01:14:26;;;;;;;10.45;3.17;;;23.40;81.40;;;;;;6307604;28;20055;-82
2022/06/20 01:17:35;;;;;;;13.65;3.03;;;23.40;82.10;;;;;;6308977;28;20048;-81
2022/06/20 01:20:38;;;;;;;7.90;3.17;;;23.30;82.50;;;;;;6307771;28;20060;-82
2022/06/20 01:23:47;;;;;;;12.82;3.88;;;23.10;83.10;;;;;;6308678;28;20045;-82
2022/06/20 01:26:56;;;;;;;15.25;3.30;;;23.00;83.80;;;;;;6307661;28;20438;-82
2022/06/20 01:29:59;;;;;;;11.63;3.92;;;22.70;84.60;;;;;;6306898;28;20047;-82
2022/06/20 01:33:01;;;;;;;8.45;3.28;;;22.70;85.20;;;;;;6306847;28;20055;-82
2022/06/20 01:39:40;;;;;;;13.20;4.07;;;22.60;86.00;;;;;;6204778;28;20389;-81
2022/06/20 01:42:42;;;;;;;14.38;3.95;;;22.60;85.70;;;;;;6205178;28;20082;-83
2022/06/20 01:46:00;;;;;;;9.38;3.67;;;22.60;86.10;;;;;;6300119;28;20040;-82
2022/06/20 01:49:08;;;;;;;7.53;3.15;;;22.60;86.50;;;;;;6305158;28;20520;-82
2022/06/20 01:52:17;;;;;;;8.75;4.05;;;22.50;86.80;;;;;;6306519;28;20044;-82
2022/06/20 01:55:22;;;;;;;12.18;3.30;;;22.40;87.30;;;;;;6306154;28;20056;-82
2022/06/20 01:58:27;;;;;;;8.05;2.90;;;22.40;87.50;;;;;;6304208;28;20051;-82
2022/06/20 02:01:33;;;;;;;13.25;4.30;;;22.30;88.10;;;;;;6305005;28;20049;-82
2022/06/20 02:04:36;;;;;;;8.07;3.67;;;22.20;88.30;;;;;;6305309;28;20048;-82
2022/06/20 02:07:39;;;;;;;15.88;4.55;;;22.20;88.60;;;;;;6323156;28;20028;-82
2022/06/20 02:10:47;;;;;;;8.52;3.42;;;22.20;88.60;;;;;;6327062;28;20139;-82
2022/06/20 02:13:52;;;;;;;15.13;4.20;;;22.20;88.90;;;;;;6305640;28;20047;-82
2022/06/20 02:17:00;;;;;;;15.88;4.55;;;22.20;88.60;;;;;;6305801;28;20131;-82
2022/06/20 02:20:07;;;;;;;9.43;3.20;;;22.20;88.70;;;;;;6305183;28;20041;-83
2022/06/20 02:23:09;;;;;;;13.45;4.72;;;22.20;88.90;;;;;;6306161;28;20051;-82
2022/06/20 02:26:12;;;;;;;9.43;3.45;;;22.20;89.00;;;;;;6304872;28;20064;-82
2022/06/20 02:29:21;;;;;;;9.40;3.63;;;22.20;88.90;;;;;;6304816;28;20040;-82
2022/06/20 02:32:27;;;;;;;9.57;3.50;;;22.30;89.30;;;;;;6305736;28;20045;-82
2022/06/20 02:35:30;;;;;;;8.82;3.38;;;22.30;89.30;;;;;;6306271;28;20049;-82
2022/06/20 02:38:33;;;;;;;11.80;3.63;;;22.40;89.40;;;;;;6304783;28;20048;-82
2022/06/20 02:41:38;;;;;;;5.25;2.53;;;22.40;89.20;;;;;;6304693;28;20045;-82
2022/06/20 02:44:43;;;;;;;10.80;3.45;;;22.50;88.90;;;;;;6304944;28;20048;-82
2022/06/20 02:47:49;;;;;;;11.70;3.08;;;22.50;87.90;;;;;;6304800;28;20411;-82
2022/06/20 02:50:54;;;;;;;9.32;2.55;;;22.60;86.80;;;;;;6305286;28;20055;-82
2022/06/20 02:53:59;;;;;;;9.68;1.80;;;22.70;85.90;;;;;;6304362;28;20095;-82
2022/06/20 02:57:08;;;;;;;13.82;3.00;;;22.80;85.10;;;;;;6304783;28;20120;-82
2022/06/20 03:00:14;;;;;;;11.15;2.92;;;22.80;84.60;;;;;;6304118;28;20052;-82
2022/06/20 03:03:24;;;;;;;10.45;2.30;;;22.90;84.30;;;;;;6305360;28;20059;-82
2022/06/20 03:06:30;;;;;;;8.32;2.15;;;23.00;83.50;;;;;;6303280;28;20073;-82
2022/06/20 03:09:34;;;;;;;7.47;2.33;;;23.20;82.70;;;;;;6303242;28;20047;-82
2022/06/20 03:12:36;;;;;;;15.55;2.42;;;23.20;82.00;;;;;;6303639;28;20060;-82
2022/06/20 03:15:40;;;;;;;10.68;2.40;;;23.20;81.70;;;;;;6302224;28;20044;-82
2022/06/20 03:18:45;;;;;;;7.63;2.22;;;23.20;82.30;;;;;;6303551;28;20112;-82
2022/06/20 03:21:48;;;;;;;5.32;2.00;;;22.90;83.10;;;;;;6303219;28;20075;-82
2022/06/20 03:24:52;;;;;;;12.68;2.30;;;22.90;83.30;;;;;;6302876;28;20497;-82
2022/06/20 03:27:54;;;;;;;6.43;2.67;;;22.80;83.10;;;;;;6302391;28;20048;-82
2022/06/20 03:30:59;;;;;;;6.82;1.63;;;22.90;82.50;;;;;;6302795;28;20051;-82
2022/06/20 03:34:02;;;;;;;8.02;2.10;;;22.90;82.30;;;;;;6301917;28;20420;-81
2022/06/20 03:37:06;;;;;;;14.57;4.88;;;23.00;81.60;;;;;;6301878;28;20047;-82
2022/06/20 03:40:09;;;;;;;7.07;1.48;;;23.10;81.30;;;;;;6302227;28;20048;-82
2022/06/20 03:43:16;;;;;;;11.25;2.47;;;23.10;80.80;;;;;;6301884;28;20421;-82
2022/06/20 03:46:22;;;;;;;5.85;1.85;;;23.20;79.70;;;;;;6300434;28;20426;-81
2022/06/20 03:49:29;;;;;;;6.65;1.88;;;23.30;79.40;;;;;;6299937;28;20044;-82
2022/06/20 03:52:35;;;;;;;9.00;1.77;;;23.30;78.70;;;;;;6300672;28;20048;-82
2022/06/20 03:55:44;;;;;;;8.75;2.10;;;23.30;78.20;;;;;;6303540;28;20048;-82
2022/06/20 03:58:51;;;;;;;9.27;2.40;;;23.30;78.10;;;;;;6306143;28;20400;-82
2022/06/20 04:02:02;;;;;;;4.50;1.13;;;23.20;77.90;;;;;;6304139;28;20048;-81
2022/06/20 04:05:11;;;;;;;8.93;1.70;;;23.00;77.70;;;;;;6305654;28;20062;-82
2022/06/20 04:08:20;;;;;;;7.63;1.95;;;22.90;77.80;;;;;;6304707;28;20041;-82
2022/06/20 04:11:26;;;;;;;9.82;1.38;;;22.80;77.80;;;;;;6305164;28;20055;-82
2022/06/20 04:14:34;;;;;;;9.90;1.88;;;22.80;77.90;;;;;;6304438;28;20045;-81
2022/06/20 04:21:16;;;;;;;10.10;2.05;;;22.90;78.00;;;;;;6303685;28;20127;-81
2022/06/20 04:24:24;;;;;;;6.43;2.00;;;23.00;77.30;;;;;;6302276;28;20046;-82
2022/06/20 04:27:33;;;;;;;8.07;1.58;;;23.10;77.30;;;;;;6303429;28;20051;-81
2022/06/20 04:30:40;;;;;;;6.28;1.88;;;23.30;76.80;;;;;;6306676;28;20047;-81
2022/06/20 04:33:46;;;;;;;7.68;1.30;;;23.40;76.50;;;;;;6307723;28;20049;-82
2022/06/20 04:36:55;;;;;;;6.60;1.92;;;23.50;76.40;;;;;;6307046;28;20044;-81
2022/06/20 04:40:05;;;;;;;11.60;2.00;;;23.40;76.30;;;;;;6307449;28;20040;-82
2022/06/20 04:43:13;;;;;;;10.02;1.65;;;23.30;76.60;;;;;;6307867;28;20505;-82
2022/06/20 04:46:20;;;;;;;9.75;1.92;;;23.30;77.00;;;;;;6306694;28;20055;-82
2022/06/20 04:49:22;;;;;;;8.80;2.22;;;23.50;76.80;;;;;;6306907;28;20044;-82
2022/06/20 04:52:28;;;;;;;7.47;2.05;;;23.70;76.60;;;;;;6306639;28;20051;-82
2022/06/20 04:55:30;;;;;;;11.15;2.30;;;24.30;75.10;;;;;;6305923;28;20417;-82
2022/06/20 04:58:36;;;;;;;13.48;2.58;;;24.50;73.60;;;;;;6306009;28;20063;-82
2022/06/20 05:01:39;;;;;;;7.68;2.42;;;24.30;73.70;;;;;;6306409;28;20066;-82
2022/06/20 05:04:46;;;;;;;14.48;2.20;;;24.10;74.10;;;;;;6306011;28;20051;-82
2022/06/20 05:07:51;;;;;;;11.02;2.05;;;23.90;74.70;;;;;;6306267;28;20158;-82
2022/06/20 05:10:57;;;;;;;7.15;1.70;;;23.70;75.00;;;;;;6307672;28;20055;-82
2022/06/20 05:14:05;;;;;;;17.13;2.05;;;23.60;75.50;;;;;;6305842;28;20727;-82
2022/06/20 05:17:11;;;;;;;;;;;23.50;76.20;;;;;;6304986;28;20564;-82
2022/06/20 05:20:20;;;;;;;4.70;1.50;;;23.60;76.20;;;;;;6305565;28;20409;-82
2022/06/20 05:23:30;;;;;;;4.78;1.65;;;23.70;76.10;;;;;;6306887;28;20056;-82
2022/06/20 05:26:35;;;;;;;14.07;2.40;;;23.60;76.60;;;;;;6324357;28;20039;-82
2022/06/20 05:29:40;;;;;;;8.73;1.83;;;23.60;76.60;;;;;;6324174;28;20083;-82
2022/06/20 05:32:46;;;;;;;5.78;1.58;;;23.80;76.10;;;;;;6307524;28;20235;-82
2022/06/20 05:35:53;;;;;;;10.02;2.10;;;23.80;76.40;;;;;;6307342;28;20054;-82
2022/06/20 05:39:02;;;;;;;10.23;1.83;;;23.90;75.60;;;;;;6306139;28;20074;-82
2022/06/20 05:42:04;;;;;;;8.18;1.40;;;24.00;75.20;;;;;;6305476;28;20094;-82
2022/06/20 05:45:14;;;;;;;8.60;1.80;;;24.20;75.10;;;;;;6305802;28;20170;-82
2022/06/20 05:48:16;;;;;;;6.40;1.23;;;24.40;74.10;;;;;;6304764;28;20509;-82
2022/06/20 05:51:21;;;;;;;13.35;2.65;;;24.60;72.90;;;;;;6306950;28;20425;-85
2022/06/20 05:54:29;;;;;;;9.38;1.73;;;24.80;72.30;;;;;;6304070;28;20121;-82
2022/06/20 05:57:31;;;;;;;;;;;25.10;72.00;;;;;;6304369;28;20049;-83
2022/06/20 06:00:34;;;;;;;13.57;2.10;;;25.50;71.10;;;;;;6303332;28;19999;-83
2022/06/20 06:03:40;;;;;;;13.60;1.73;;;25.80;68.50;;;;;;6304544;28;20131;-82
2022/06/20 06:06:48;;;;;;;9.18;2.40;;;26.00;68.10;;;;;;6307283;28;20040;-83
2022/06/20 06:10:28;;;;;;;6.03;1.77;;;26.60;66.30;;;;;;6284925;28;20032;-84
2022/06/20 06:17:18;;;;;;;4.15;1.17;;;27.80;62.60;;;;;;6274522;28;20044;-85
2022/06/20 06:20:24;;;;;;;8.55;1.83;;;28.20;61.40;;;;;;6281593;28;20049;-84
2022/06/20 06:23:26;;;;;;;9.45;1.50;;;28.60;59.80;;;;;;6284698;28;20045;-84
2022/06/20 06:26:29;;;;;;;8.07;1.60;;;29.20;58.20;;;;;;6264243;28;20476;-84
2022/06/20 06:57:39;;;;;;;7.20;1.60;;;28.30;59.20;;;;;;6245138;28;20053;-85
2022/06/20 07:00:45;;;;;;;7.28;1.70;;;28.30;58.70;;;;;;6284135;28;20055;-84
2022/06/20 07:03:52;;;;;;;7.75;1.73;;;28.20;58.60;;;;;;6286183;28;20049;-85
2022/06/20 07:07:00;;;;;;;9.53;1.53;;;28.20;58.30;;;;;;6298817;28;20036;-83
2022/06/20 07:10:03;;;;;;;12.10;1.52;;;28.30;58.30;;;;;;6287026;28;20717;-86
2022/06/20 07:13:13;;;;;;;15.30;2.58;;;28.30;58.50;;;;;;6288120;28;20113;-84
2022/06/20 07:16:21;;;;;;;14.30;2.47;;;28.30;58.20;;;;;;6288169;28;20429;-85
2022/06/20 07:19:25;;;;;;;7.93;1.48;;;28.60;57.80;;;;;;6309141;28;20049;-84
2022/06/20 07:22:30;;;;;;;12.15;2.05;;;28.80;56.70;;;;;;6312312;28;20045;-85
2022/06/20 07:25:36;;;;;;;8.20;2.80;;;29.10;56.20;;;;;;6311525;28;20048;-85
2022/06/20 07:28:44;;;;;;;6.93;1.70;;;29.20;55.10;;;;;;6311527;28;20044;-85
2022/06/20 07:31:50;;;;;;;6.95;1.98;;;29.40;54.80;;;;;;6310650;28;20108;-84
2022/06/20 07:34:56;;;;;;;9.60;2.33;;;29.50;54.80;;;;;;6313067;28;20111;-85
2022/06/20 07:38:05;;;;;;;6.40;1.80;;;29.50;54.00;;;;;;6311413;28;20097;-84
2022/06/20 07:41:13;;;;;;;7.53;1.92;;;29.30;54.40;;;;;;6311203;28;20040;-83
2022/06/20 07:44:23;;;;;;;10.05;2.92;;;29.20;55.00;;;;;;6312204;28;20055;-85
2022/06/20 07:47:30;;;;;;;7.63;1.60;;;29.20;55.30;;;;;;6312171;28;20387;-84
2022/06/20 07:50:34;;;;;;;;;;;29.40;54.90;;;;;;6314207;28;20048;-85
2022/06/20 07:53:43;;;;;;;9.40;2.65;;;29.70;54.10;;;;;;6305787;28;19920;-85
2022/06/20 07:56:50;;;;;;;10.05;3.17;;;29.80;53.70;;;;;;6305868;28;20056;-85
2022/06/20 07:59:57;;;;;;;7.05;2.40;;;30.00;53.70;;;;;;6305833;28;20058;-84
2022/06/20 08:03:07;;;;;;;13.93;2.53;;;30.30;53.40;;;;;;6307088;28;20045;-85
2022/06/20 08:06:21;;;;;;;5.88;2.22;;;30.50;53.10;;;;;;6307321;28;20052;-85
2022/06/20 08:09:31;;;;;;;16.35;2.35;;;30.90;52.10;;;;;;6306682;28;20051;-84
2022/06/20 08:12:37;;;;;;;9.18;2.00;;;30.80;51.60;;;;;;6306844;28;20144;-85
2022/06/20 08:15:46;;;;;;;8.23;2.00;;;30.90;51.90;;;;;;6307846;28;20052;-84
2022/06/20 08:18:49;;;;;;;16.77;2.08;;;31.30;51.40;;;;;;6304542;28;20048;-85
2022/06/20 08:22:12;;;;;;;8.65;1.95;;;31.30;50.90;;;;;;6290399;28;20051;-83
2022/06/20 08:25:25;;;;;;;10.65;2.13;;;31.30;51.00;;;;;;6306603;28;20769;-84
2022/06/20 08:28:32;;;;;;;4.93;2.08;;;31.20;51.20;;;;;;6295267;28;20172;-84
2022/06/20 08:31:38;;;;;;;8.02;1.73;;;30.90;51.80;;;;;;6285494;28;20049;-84
2022/06/20 08:34:45;;;;;;;14.25;2.70;;;30.60;52.50;;;;;;6288630;28;20056;-85
2022/06/20 08:37:51;;;;;;;7.25;3.15;;;30.60;53.10;;;;;;6282555;28;20048;-82
2022/06/20 08:41:19;;;;;;;10.10;3.10;;;30.30;53.60;;;;;;6286477;28;20048;-85
2022/06/20 08:44:52;;;;;;;4.47;1.95;;;29.90;53.50;;;;;;6289929;28;20045;-82
2022/06/20 08:48:33;;;;;;;11.00;2.03;;;29.60;54.60;;;;;;6292917;28;20121;-82
2022/06/20 08:52:08;;;;;;;9.75;1.90;;;29.50;55.50;;;;;;6296892;28;20482;-85
2022/06/20 08:55:40;;;;;;;11.50;2.20;;;29.40;56.40;;;;;;6282316;28;20057;-83
2022/06/20 08:58:59;;;;;;;5.45;2.22;;;29.00;57.40;;;;;;6271217;28;20560;-83
2022/06/20 09:02:14;;;;;;;8.52;2.60;;;28.80;58.10;;;;;;6285931;28;20049;-85
2022/06/20 09:05:47;;;;;;;11.68;2.45;;;28.70;58.20;;;;;;6288396;28;20059;-85
2022/06/20 09:09:19;;;;;;;11.57;2.70;;;28.80;58.30;;;;;;6286669;28;20055;-86
2022/06/20 09:12:42;;;;;;;15.57;2.53;;;29.20;57.30;;;;;;6286723;28;20113;-86
2022/06/20 09:15:56;;;;;;;8.98;2.53;;;29.60;56.70;;;;;;6285386;28;20060;-84
2022/06/20 09:19:17;;;;;;;11.20;3.05;;;29.90;55.30;;;;;;6293028;28;20589;-85
2022/06/20 09:22:32;;;;;;;11.48;2.83;;;29.80;55.30;;;;;;6300459;28;20045;-83
2022/06/20 09:25:40;;;;;;;21.10;3.90;;;29.70;56.10;;;;;;6312767;28;20040;-85
2022/06/20 09:29:01;;;;;;;13.90;2.80;;;29.70;56.20;;;;;;6310185;28;20051;-85
2022/06/20 09:32:28;;;;;;;11.75;2.50;;;29.70;56.10;;;;;;6308232;28;20500;-85
2022/06/20 09:36:04;;;;;;;13.77;2.50;;;29.80;56.20;;;;;;6308994;28;20429;-83
2022/06/20 09:39:40;;;;;;;8.10;2.70;;;29.90;56.30;;;;;;6306272;28;20051;-85
2022/06/20 09:42:48;;;;;;;12.27;2.65;;;30.00;56.60;;;;;;6303467;28;20143;-86
2022/06/20 09:45:57;;;;;;;14.48;3.45;;;30.20;56.90;;;;;;6305709;28;20048;-85
2022/06/20 09:49:16;;;;;;;9.55;2.90;;;30.30;56.40;;;;;;6304263;28;20040;-84
2022/06/20 09:52:28;;;;;;;12.90;3.08;;;30.40;56.30;;;;;;6304269;28;20036;-85
2022/06/20 09:55:35;;;;;;;11.93;2.85;;;30.40;56.10;;;;;;6304663;28;20064;-84
2022/06/20 09:58:44;;;;;;;9.10;2.42;;;30.40;56.10;;;;;;6303651;28;20154;-85
2022/06/20 10:01:51;;;;;;;6.22;2.95;;;30.40;56.30;;;;;;6303555;28;20040;-85
2022/06/20 10:05:12;;;;;;;9.18;2.40;;;30.60;56.30;;;;;;6303592;28;20131;-85
2022/06/20 10:08:26;;;;;;;10.27;2.53;;;30.80;55.50;;;;;;6302921;28;20044;-86
2022/06/20 10:11:35;;;;;;;5.80;2.22;;;30.80;54.70;;;;;;6306450;28;20045;-86
2022/06/20 10:14:51;;;;;;;6.70;2.50;;;30.80;54.30;;;;;;6306512;28;20054;-85
2022/06/20 10:18:02;;;;;;;6.70;2.97;;;30.80;54.10;;;;;;6306075;28;20514;-85
2022/06/20 10:21:16;;;;;;;17.13;2.83;;;31.00;54.10;;;;;;6304568;28;20044;-85
2022/06/20 10:24:42;;;;;;;12.88;3.67;;;31.00;53.90;;;;;;6304526;28;20044;-86
2022/06/20 10:27:53;;;;;;;12.63;2.97;;;30.70;54.30;;;;;;6305495;28;20057;-86
2022/06/20 10:31:04;;;;;;;8.52;2.53;;;30.50;55.40;;;;;;6305219;28;20058;-85
2022/06/20 10:34:10;;;;;;;9.57;2.67;;;30.50;56.10;;;;;;6306967;28;20049;-85
2022/06/20 10:37:25;;;;;;;10.68;3.33;;;30.50;55.60;;;;;;6304301;28;20048;-85
2022/06/20 10:40:37;;;;;;;10.32;2.40;;;30.40;55.80;;;;;;6300457;28;20048;-85
2022/06/20 10:43:46;;;;;;;8.65;2.60;;;30.50;56.30;;;;;;6299791;28;20051;-84
2022/06/20 10:46:56;;;;;;;10.90;3.05;;;30.60;55.40;;;;;;6300223;28;20048;-85
2022/06/20 10:50:16;;;;;;;13.98;3.15;;;30.60;55.60;;;;;;6298240;28;20045;-84
2022/06/20 10:53:28;;;;;;;8.30;2.50;;;30.60;55.20;;;;;;6299925;28;20044;-85
2022/06/20 10:56:38;;;;;;;10.35;2.65;;;30.40;55.40;;;;;;6300199;28;20059;-84
2022/06/20 10:59:48;;;;;;;7.88;2.42;;;30.40;55.60;;;;;;6299977;28;20076;-85
2022/06/20 11:03:05;;;;;;;9.98;2.60;;;30.60;55.60;;;;;;6300391;28;20048;-84
2022/06/20 11:06:19;;;;;;;4.95;2.22;;;30.90;54.70;;;;;;6299439;28;20052;-84
2022/06/20 11:09:28;;;;;;;8.35;2.22;;;31.20;54.10;;;;;;6300704;28;20403;-85
2022/06/20 11:12:41;;;;;;;7.13;2.05;;;31.40;53.00;;;;;;6299915;23;20297;-82
2022/06/20 11:15:50;;;;;;;8.15;1.85;;;31.30;53.50;;;;;;6265969;28;20089;-82
2022/06/20 11:19:14;;;;;;;3.97;1.48;;;31.60;53.00;;;;;;6300201;28;20052;-83
2022/06/20 11:22:30;;;;;;;3.83;1.73;;;32.10;52.80;;;;;;6296667;28;20326;-81
2022/06/20 11:25:43;;;;;;;12.48;1.92;;;32.50;51.40;;;;;;6251714;28;20045;-82
2022/06/20 11:28:57;;;;;;;4.20;1.55;;;32.90;50.30;;;;;;6253249;28;20052;-85
2022/06/20 11:32:07;;;;;;;7.50;1.73;;;33.10;48.90;;;;;;6249905;28;20046;-86
2022/06/20 11:35:21;;;;;;;7.65;2.17;;;33.10;48.70;;;;;;6250560;28;20076;-86
2022/06/20 11:38:44;;;;;;;10.80;1.23;;;32.90;48.70;;;;;;6251333;28;20522;-82
2022/06/20 11:41:52;;;;;;;10.63;1.95;;;32.90;48.60;;;;;;6249947;28;20694;-88
2022/06/20 11:45:08;;;;;;;8.52;2.05;;;32.90;48.90;;;;;;6257944;28;20047;-86
2022/06/20 11:48:27;;;;;;;9.07;1.88;;;32.90;48.90;;;;;;6290534;28;20041;-87
2022/06/20 11:51:39;;;;;;;8.45;1.88;;;32.60;49.60;;;;;;6297938;28;20513;-85
2022/06/20 11:54:47;;;;;;;12.93;2.10;;;32.20;50.70;;;;;;6298649;28;20052;-85
2022/06/20 11:57:56;;;;;;;10.07;2.40;;;31.70;51.70;;;;;;6304152;28;20421;-86
2022/06/20 12:01:03;;;;;;;11.70;2.20;;;31.30;52.90;;;;;;6297760;28;20422;-86
2022/06/20 12:04:12;;;;;;;5.93;2.10;;;30.90;54.40;;;;;;6299578;28;20041;-85
2022/06/20 12:07:20;;;;;;;8.55;1.90;;;30.50;55.50;;;;;;6301319;28;20067;-84
2022/06/20 12:10:29;;;;;;;10.98;1.70;;;30.30;56.60;;;;;;6304104;28;20055;-87
2022/06/20 12:13:46;;;;;;;9.88;1.70;;;30.00;57.80;;;;;;6301236;28;20044;-86
2022/06/20 12:16:53;;;;;;;9.73;2.63;;;30.00;58.50;;;;;;6285172;28;20506;-86
2022/06/20 12:23:45;;;;;;;9.25;2.17;;;30.00;59.80;;;;;;6300820;28;20525;-84
2022/06/20 12:26:47;;;;;;;3.60;1.75;;;30.00;60.00;;;;;;6300929;28;20075;-85
2022/06/20 12:29:50;;;;;;;5.80;1.40;;;29.60;60.90;;;;;;6300091;28;20045;-84
2022/06/20 12:32:57;;;;;;;7.38;1.83;;;29.60;61.60;;;;;;6300992;28;20048;-83
2022/06/20 12:36:02;;;;;;;5.85;1.38;;;29.60;61.50;;;;;;6299995;28;20045;-84
2022/06/20 12:39:10;;;;;;;7.03;1.48;;;29.30;61.50;;;;;;6301963;28;20044;-84
2022/06/20 12:42:18;;;;;;;7.28;1.48;;;28.80;62.30;;;;;;6301003;28;20051;-84
2022/06/20 12:45:38;;;;;;;7.35;1.15;;;28.50;62.50;;;;;;6295612;28;20060;-82
2022/06/20 12:48:59;;;;;;;4.63;0.80;;;28.60;62.50;;;;;;6295793;28;20379;-86
2022/06/20 12:52:07;;;;;;;8.27;1.50;;;28.60;61.20;;;;;;6304859;28;20040;-83
2022/06/20 12:55:28;;;;;;;6.43;1.10;;;28.60;61.10;;;;;;6305875;28;20143;-83
2022/06/20 12:58:55;;;;;;;5.38;0.98;;;28.20;61.40;;;;;;6305108;28;20044;-85
2022/06/20 13:02:09;;;;;;;2.95;1.02;;;27.70;61.40;;;;;;6306727;28;20032;-84
2022/06/20 13:05:44;;;;;;;2.45;1.20;;;27.00;62.90;;;;;;6306083;28;20048;-83
2022/06/20 13:09:07;;;;;;;4.13;0.98;;;26.50;64.20;;;;;;6309381;28;20040;-82
2022/06/20 13:12:21;;;;;;;5.53;1.05;;;26.10;65.00;;;;;;6305234;28;20131;-83
2022/06/20 13:15:38;;;;;;;2.38;1.00;;;25.70;66.10;;;;;;6288892;28;20057;-83
2022/06/20 13:18:56;;;;;;;3.53;1.45;;;25.40;67.20;;;;;;6284771;28;20484;-83
2022/06/20 13:22:03;;;;;;;4.18;1.23;;;25.50;67.50;;;;;;6279508;28;20045;-84
2022/06/20 13:25:22;;;;;;;6.20;1.57;;;25.80;67.50;;;;;;6280171;28;20045;-84
2022/06/20 13:28:28;;;;;;;;;;;26.40;65.80;;;;;;6280065;28;20367;-83
2022/06/20 13:31:37;;;;;;;2.38;1.10;;;26.60;65.50;;;;;;6279903;28;19928;-84
2022/06/20 13:34:51;;;;;;;3.90;1.60;;;27.10;64.00;;;;;;6280619;28;20136;-82
2022/06/20 13:38:02;;;;;;;8.30;1.48;;;27.80;62.80;;;;;;6280008;28;20421;-84
2022/06/20 13:41:12;;;;;;;6.47;1.83;;;28.20;60.70;;;;;;6280054;28;20131;-85
2022/06/20 13:44:28;;;;;;;4.78;0.93;;;28.40;60.00;;;;;;6274496;28;20045;-84
2022/06/20 13:47:34;;;;;;;4.03;1.88;;;28.40;59.80;;;;;;6282143;28;20063;-84
2022/06/20 13:50:47;;;;;;;3.28;1.10;;;28.10;59.20;;;;;;6280057;28;20067;-83
2022/06/20 13:53:55;;;;;;;4.07;1.48;;;27.80;59.70;;;;;;6280931;28;20131;-84
2022/06/20 13:57:03;;;;;;;7.38;1.90;;;27.50;60.60;;;;;;6300097;28;20473;-82
2022/06/20 14:00:20;;;;;;;3.13;1.00;;;27.30;60.40;;;;;;6277535;28;20048;-83
2022/06/20 14:03:27;;;;;;;5.05;1.38;;;27.10;61.30;;;;;;6278414;28;20051;-86
2022/06/20 14:06:43;;;;;;;1.63;0.77;;;27.40;60.50;;;;;;6280086;28;20575;-85
2022/06/20 14:09:51;;;;;;;3.70;1.65;;;27.60;60.30;;;;;;6278628;28;20049;-84
2022/06/20 14:12:57;;;;;;;4.65;1.10;;;28.00;58.90;;;;;;6279395;28;20073;-83
2022/06/20 14:16:17;;;;;;;2.83;1.10;;;28.20;58.00;;;;;;6276024;28;20396;-83
2022/06/20 14:19:22;;;;;;;2.10;1.25;;;28.10;58.00;;;;;;6258070;28;20057;-84
2022/06/20 14:22:33;;;;;;;6.85;1.40;;;28.30;57.90;;;;;;6254227;28;20052;-83
2022/06/20 14:25:41;;;;;;;2.67;1.30;;;28.60;56.60;;;;;;6253130;28;20049;-82
2022/06/20 14:28:47;;;;;;;4.75;2.38;;;28.30;56.90;;;;;;6252685;28;20049;-82
2022/06/20 14:31:57;;;;;;;4.13;1.38;;;28.10;56.60;;;;;;6252428;28;20072;-83
2022/06/20 14:35:23;;;;;;;2.17;1.17;;;28.00;57.40;;;;;;6254702;28;20056;-84
2022/06/20 14:38:32;;;;;;;1.58;0.98;;;28.40;56.90;;;;;;6256270;28;20045;-85
2022/06/20 14:41:40;;;;;;;2.55;1.50;;;28.80;55.60;;;;;;6253821;28;20049;-83
2022/06/20 14:44:48;;;;;;;1.90;1.20;;;28.20;55.90;;;;;;6260540;28;20063;-85
2022/06/20 14:47:58;;;;;;;2.60;1.50;;;27.70;57.80;;;;;;6295323;28;20056;-82
2022/06/20 14:51:08;;;;;;;2.92;1.90;;;27.80;57.70;;;;;;6304343;28;20135;-82
2022/06/20 14:54:17;;;;;;;4.47;1.55;;;27.60;57.70;;;;;;6308384;28;20037;-84
2022/06/20 14:57:26;;;;;;;2.28;1.35;;;27.60;58.00;;;;;;6303414;28;20045;-85
2022/06/20 15:00:33;;;;;;;2.63;1.67;;;27.90;58.00;;;;;;6302909;28;20045;-83
2022/06/20 15:03:47;;;;;;;3.97;1.33;;;27.90;57.30;;;;;;6302324;28;20194;-82
2022/06/20 15:06:55;;;;;;;4.50;2.80;;;27.70;57.90;;;;;;6305340;28;20048;-85
2022/06/20 15:10:03;;;;;;;4.78;1.83;;;28.10;57.90;;;;;;6304294;28;20528;-86
2022/06/20 15:13:22;;;;;;;2.60;1.30;;;28.60;56.60;;;;;;6305766;28;20043;-84
2022/06/20 15:16:28;;;;;;;1.85;1.30;;;29.10;54.60;;;;;;6290283;28;20107;-84
2022/06/20 15:19:39;;;;;;;5.57;1.77;;;28.70;54.60;;;;;;6255337;28;20059;-82
2022/06/20 15:22:50;;;;;;;1.73;1.40;;;28.50;55.60;;;;;;6253185;28;20046;-84
2022/06/20 15:25:57;;;;;;;2.60;1.35;;;28.70;55.50;;;;;;6261237;28;20041;-85
2022/06/20 15:29:05;;;;;;;1.83;1.05;;;28.60;55.20;;;;;;6254829;28;20041;-83
2022/06/20 15:32:24;;;;;;;1.77;1.13;;;28.60;55.30;;;;;;6256674;28;20072;-83
2022/06/20 15:35:56;;;;;;;4.68;1.58;;;28.60;55.00;;;;;;6254553;28;20060;-83
2022/06/20 15:39:08;;;;;;;2.72;1.67;;;28.70;54.10;;;;;;6254173;28;20127;-83
2022/06/20 15:42:18;;;;;;;4.25;1.00;;;28.70;54.00;;;;;;6253998;28;20136;-82
2022/06/20 15:45:27;;;;;;;1.67;1.20;;;28.70;54.10;;;;;;6270999;28;20041;-83
2022/06/20 15:48:33;;;;;;;1.85;1.08;;;28.60;53.60;;;;;;6295627;28;20045;-83
2022/06/20 15:51:43;;;;;;;3.70;1.50;;;28.30;54.30;;;;;;6302625;28;20058;-82
2022/06/20 15:55:06;;;;;;;3.85;1.08;;;28.10;54.30;;;;;;6302602;28;20413;-83
2022/06/20 15:58:29;;;;;;;3.00;1.52;;;28.10;54.10;;;;;;6300843;28;20044;-83
2022/06/20 16:01:40;;;;;;;1.15;0.80;;;27.80;54.20;;;;;;6301361;28;20048;-83
2022/06/20 16:04:48;;;;;;;6.53;1.00;;;27.50;55.20;;;;;;6302324;28;20036;-82
2022/06/20 16:07:55;;;;;;;2.88;1.17;;;27.20;55.40;;;;;;6302587;28;20064;-82
2022/06/20 16:11:03;;;;;;;3.55;1.05;;;27.20;55.60;;;;;;6303920;28;20048;-82
2022/06/20 16:14:08;;;;;;;;;;;27.20;55.50;;;;;;6297442;28;20052;-83
2022/06/20 16:17:09;;;;;;;3.38;0.77;;;27.40;55.00;;;;;;6291830;28;19920;-83
2022/06/20 16:20:13;;;;;;;3.20;0.93;;;27.80;53.90;;;;;;6266884;28;20041;-84
2022/06/20 16:23:24;;;;;;;2.15;0.98;;;28.00;53.00;;;;;;6254813;28;20058;-84
2022/06/20 16:26:28;;;;;;;1.27;0.82;;;28.20;52.50;;;;;;6258449;28;20053;-84
2022/06/20 16:29:34;;;;;;;2.80;0.60;;;28.50;51.80;;;;;;6258242;28;20132;-83
2022/06/20 16:32:39;;;;;;;2.72;0.95;;;28.50;51.60;;;;;;6257247;28;20051;-83
2022/06/20 16:35:42;;;;;;;1.20;0.82;;;28.30;51.50;;;;;;6257438;28;20057;-83
2022/06/20 16:38:43;;;;;;;1.25;0.82;;;28.10;52.00;;;;;;6257628;28;20132;-85
2022/06/20 16:41:54;;;;;;;2.78;0.75;;;27.90;52.30;;;;;;6258601;28;20154;-84
2022/06/20 16:45:06;;;;;;;4.10;0.80;;;27.80;52.20;;;;;;6269989;28;20049;-83
2022/06/20 16:48:25;;;;;;;4.43;1.08;;;27.60;52.50;;;;;;6299858;28;20040;-84
2022/06/20 16:51:42;;;;;;;3.55;0.77;;;27.50;52.90;;;;;;6306903;28;20057;-85
2022/06/20 16:54:49;;;;;;;2.42;0.65;;;27.30;53.10;;;;;;6308822;28;20051;-84
2022/06/20 16:57:56;;;;;;;3.03;0.90;;;27.10;53.50;;;;;;6308680;28;20052;-85
2022/06/20 17:01:07;;;;;;;1.45;0.47;;;26.80;54.00;;;;;;6307887;28;20062;-81
2022/06/20 17:04:18;;;;;;;35.78;15.27;;;26.50;54.40;;;;;;6310472;28;20045;-86
2022/06/20 17:07:29;;;;;;;2.95;1.42;;;26.10;55.30;;;;;;6290061;28;20045;-83